Time;durP1;ratioP1;P1;durP2;ratioP2;P2;SDS_P1;SDS_P2;PMS_P1;PMS_P2;Temp;Humidity;BMP_temperature;BMP_pressure;BME280_temperature;BME280_humidity;BME280_pressure;Samples;Min_cycle;Max_cycle;Signal;HPM_P1;HPM_P2
2022/06/01 00:01:46;;;;;;;;;;;;;;;;;;5093539;28;19939;-44
2022/06/01 00:04:12;;;;;;;;;;;;;;;;;;5094039;28;20424;-42
2022/06/01 00:06:38;;;;;;;;;;;;;;;;;;5093755;28;19979;-42
2022/06/01 00:09:05;;;;;;;;;;;;;;;;;;5093351;28;19920;-47
2022/06/01 00:11:32;;;;;;;;;;;;;;;;;;5093856;28;20248;-50
2022/06/01 00:13:58;;;;;;;;;;;;;;;;;;5093260;28;19928;-47
2022/06/01 00:16:25;;;;;;;;;;;;;;;;;;5092061;28;20414;-55
2022/06/01 00:18:51;;;;;;;;;;;;;;;;;;5093952;28;20392;-50
2022/06/01 00:21:18;;;;;;;;;;;;;;;;;;5093936;28;20322;-56
2022/06/01 00:23:44;;;;;;;;;;;;;;;;;;5093688;28;19980;-53
2022/06/01 00:26:11;;;;;;;;;;;;;;;;;;5092821;28;20279;-57
2022/06/01 00:28:37;;;;;;;;;;;;;;;;;;5092301;28;19904;-55
2022/06/01 00:31:03;;;;;;;;;;;;;;;;;;5093229;28;19965;-50
2022/06/01 00:33:30;;;;;;;;;;;;;;;;;;5093201;28;19992;-48
2022/06/01 00:35:56;;;;;;;;;;;;;;;;;;5092743;28;20072;-53
2022/06/01 00:38:23;;;;;;;;;;;;;;;;;;5092907;28;19908;-57
2022/06/01 00:40:49;;;;;;;;;;;;;;;;;;5093366;28;19935;-51
2022/06/01 00:43:16;;;;;;;;;;;;;;;;;;5093114;28;20019;-50
2022/06/01 00:45:42;;;;;;;;;;;;;;;;;;5093214;28;19908;-50
2022/06/01 00:48:09;;;;;;;;;;;;;;;;;;5093192;28;19912;-49
2022/06/01 00:50:36;;;;;;;;;;;;;;;;;;5092759;28;19908;-49
2022/06/01 00:53:02;;;;;;;;;;;;;;;;;;5092632;28;19913;-51
2022/06/01 00:55:29;;;;;;;;;;;;;;;;;;5092827;28;20378;-55
2022/06/01 00:57:55;;;;;;;;;;;;;;;;;;5093088;28;19951;-50
2022/06/01 01:00:22;;;;;;;;;;;;;;;;;;5092579;28;19911;-51
2022/06/01 01:02:48;;;;;;;;;;;;;;;;;;5092429;28;19912;-47
2022/06/01 01:05:15;;;;;;;;;;;;;;;;;;5093022;28;19909;-50
2022/06/01 01:07:41;;;;;;;;;;;;;;;;;;5092674;28;19927;-53
2022/06/01 01:10:08;;;;;;;;;;;;;;;;;;5092410;28;19942;-48
2022/06/01 01:13:19;;;;;;;;;;;;;;;;;;5092360;28;19916;-46
2022/06/01 01:15:21;;;;;;;;;;;;;;;;;;5083311;28;20335;-56
2022/06/01 01:17:47;;;;;;;;;;;;;;;;;;5091880;28;19961;-45
2022/06/01 01:20:13;;;;;;;;;;;;;;;;;;5092741;28;19915;-45
2022/06/01 01:22:40;;;;;;;;;;;;;;;;;;5092532;28;19915;-52
2022/06/01 01:25:06;;;;;;;;;;;;;;;;;;5092459;28;20378;-53
2022/06/01 01:27:33;;;;;;;;;;;;;;;;;;5092187;28;20400;-50
2022/06/01 01:29:59;;;;;;;;;;;;;;;;;;5092558;28;19908;-46
2022/06/01 01:32:26;;;;;;;;;;;;;;;;;;5092643;28;19991;-44
2022/06/01 01:34:52;;;;;;;;;;;;;;;;;;5092180;28;19916;-46
2022/06/01 01:37:19;;;;;;;;;;;;;;;;;;5092455;28;20002;-50
2022/06/01 01:39:45;;;;;;;;;;;;;;;;;;5092839;28;19961;-55
2022/06/01 01:42:12;;;;;;;;;;;;;;;;;;5091629;28;19908;-52
2022/06/01 01:44:38;;;;;;;;;;;;;;;;;;5092002;28;19912;-47
2022/06/01 01:47:05;;;;;;;;;;;;;;;;;;5092090;28;19921;-49
2022/06/01 01:49:31;;;;;;;;;;;;;;;;;;5090614;28;19957;-47
2022/06/01 01:51:59;;;;;;;;;;;;;;;;;;5090784;28;20040;-55
2022/06/01 01:54:26;;;;;;;;;;;;;;;;;;5091802;28;19924;-49
2022/06/01 01:56:52;;;;;;;;;;;;;;;;;;5092246;28;19966;-50
2022/06/01 01:59:19;;;;;;;;;;;;;;;;;;5090714;28;19935;-53
2022/06/01 02:01:45;;;;;;;;;;;;;;;;;;5088612;28;19916;-57
2022/06/01 02:06:03;;;;;;;;;;;;;;;;;;5087128;28;20059;-49
2022/06/01 02:06:58;;;;;;;;;;;;;;;;;;5088495;28;20420;-55
2022/06/01 02:09:24;;;;;;;;;;;;;;;;;;5085985;28;20216;-54
2022/06/01 02:14:35;;;;;;;;;;;;;;;;;;5071629;28;20224;-50
2022/06/01 02:17:02;;;;;;;;;;;;;;;;;;5072091;28;19913;-55
2022/06/01 02:19:28;;;;;;;;;;;;;;;;;;5071705;28;19915;-56
2022/06/01 02:21:55;;;;;;;;;;;;;;;;;;5071853;28;19994;-53
2022/06/01 02:24:21;;;;;;;;;;;;;;;;;;5069985;28;19905;-58
2022/06/01 02:26:49;;;;;;;;;;;;;;;;;;5069851;28;20142;-55
2022/06/01 02:29:16;;;;;;;;;;;;;;;;;;5069621;28;19930;-58
2022/06/01 02:31:42;;;;;;;;;;;;;;;;;;5069615;28;19915;-51
2022/06/01 02:34:09;;;;;;;;;;;;;;;;;;5069784;28;19920;-60
2022/06/01 02:36:35;;;;;;;;;;;;;;;;;;5069479;28;19916;-56
2022/06/01 02:39:02;;;;;;;;;;;;;;;;;;5070536;28;19909;-56
2022/06/01 02:44:13;;;;;;;;;;;;;;;;;;5075384;28;20420;-52
2022/06/01 02:46:39;;;;;;;;;;;;;;;;;;5074602;28;20439;-58
2022/06/01 02:49:06;;;;;;;;;;;;;;;;;;5075229;28;20024;-53
2022/06/01 02:51:32;;;;;;;;;;;;;;;;;;5075191;28;19955;-54
2022/06/01 02:53:59;;;;;;;;;;;;;;;;;;5075163;28;19921;-51
2022/06/01 02:56:25;;;;;;;;;;;;;;;;;;5074616;28;19908;-49
2022/06/01 02:58:52;;;;;;;;;;;;;;;;;;5075226;28;19909;-48
2022/06/01 03:01:18;;;;;;;;;;;;;;;;;;5074918;28;19977;-56
2022/06/01 03:03:45;;;;;;;;;;;;;;;;;;5074491;28;19908;-54
2022/06/01 03:06:11;;;;;;;;;;;;;;;;;;5074983;28;19918;-55
2022/06/01 03:08:39;;;;;;;;;;;;;;;;;;5091057;28;20401;-47
2022/06/01 03:11:05;;;;;;;;;;;;;;;;;;5094668;28;19930;-50
2022/06/01 03:13:32;;;;;;;;;;;;;;;;;;5094588;28;20400;-45
2022/06/01 03:15:58;;;;;;;;;;;;;;;;;;5094440;28;20313;-44
2022/06/01 03:18:25;;;;;;;;;;;;;;;;;;5093057;28;20010;-52
2022/06/01 03:20:51;;;;;;;;;;;;;;;;;;5094867;28;19916;-48
2022/06/01 03:23:19;;;;;;;;;;;;;;;;;;5094645;28;19943;-47
2022/06/01 03:25:45;;;;;;;;;;;;;;;;;;5094594;28;19912;-43
2022/06/01 03:28:12;;;;;;;;;;;;;;;;;;5074791;28;20019;-44
2022/06/01 03:30:38;;;;;;;;;;;;;;;;;;5069034;28;20316;-43
2022/06/01 03:33:05;;;;;;;;;;;;;;;;;;5073041;28;19931;-43
2022/06/01 03:35:31;;;;;;;;;;;;;;;;;;5070773;28;20052;-40
2022/06/01 03:37:58;;;;;;;;;;;;;;;;;;5071548;28;19935;-50
2022/06/01 03:40:24;;;;;;;;;;;;;;;;;;5073213;28;19920;-48
2022/06/01 03:42:51;;;;;;;;;;;;;;;;;;5077030;28;19908;-55
2022/06/01 03:48:02;;;;;;;;;;;;;;;;;;5070233;28;19915;-53
2022/06/01 03:50:28;;;;;;;;;;;;;;;;;;5073346;28;19919;-50
2022/06/01 03:52:55;;;;;;;;;;;;;;;;;;5073638;28;20272;-50
2022/06/01 03:55:21;;;;;;;;;;;;;;;;;;5073303;28;20374;-53
2022/06/01 03:57:48;;;;;;;;;;;;;;;;;;5074079;28;19908;-53
2022/06/01 04:00:14;;;;;;;;;;;;;;;;;;5072087;28;19909;-48
2022/06/01 04:02:41;;;;;;;;;;;;;;;;;;5070580;28;20003;-52
2022/06/01 04:05:07;;;;;;;;;;;;;;;;;;5072815;28;19908;-55
2022/06/01 04:07:34;;;;;;;;;;;;;;;;;;5078783;28;20398;-48
2022/06/01 04:10:00;;;;;;;;;;;;;;;;;;5087454;28;19908;-44
2022/06/01 04:12:26;;;;;;;;;;;;;;;;;;5084711;28;19917;-53
2022/06/01 04:14:53;;;;;;;;;;;;;;;;;;5078843;28;19920;-55
2022/06/01 04:17:19;;;;;;;;;;;;;;;;;;5088155;28;19909;-59
2022/06/01 04:19:46;;;;;;;;;;;;;;;;;;5087598;28;19916;-57
2022/06/01 04:22:12;;;;;;;;;;;;;;;;;;5082992;28;19931;-50
2022/06/01 04:24:39;;;;;;;;;;;;;;;;;;5081255;28;19963;-50
2022/06/01 04:27:05;;;;;;;;;;;;;;;;;;5089367;28;19912;-53
2022/06/01 04:29:32;;;;;;;;;;;;;;;;;;5089146;28;19915;-57
2022/06/01 04:31:58;;;;;;;;;;;;;;;;;;5093162;28;19919;-53
2022/06/01 04:34:24;;;;;;;;;;;;;;;;;;5092606;28;19962;-50
2022/06/01 04:36:54;;;;;;;;;;;;;;;;;;5093381;28;19915;-56
2022/06/01 04:39:21;;;;;;;;;;;;;;;;;;5093316;28;19912;-51
2022/06/01 04:41:47;;;;;;;;;;;;;;;;;;5093311;28;19956;-56
2022/06/01 04:44:13;;;;;;;;;;;;;;;;;;5092542;28;19953;-55
2022/06/01 04:46:40;;;;;;;;;;;;;;;;;;5089031;28;20377;-43
2022/06/01 04:49:07;;;;;;;;;;;;;;;;;;5080196;28;20416;-54
2022/06/01 04:51:34;;;;;;;;;;;;;;;;;;5086801;28;19908;-53
2022/06/01 04:54:00;;;;;;;;;;;;;;;;;;5083270;28;19963;-48
2022/06/01 04:56:27;;;;;;;;;;;;;;;;;;5084301;28;19908;-59
2022/06/01 04:58:53;;;;;;;;;;;;;;;;;;5073706;28;19915;-58
2022/06/01 05:01:20;;;;;;;;;;;;;;;;;;5092627;28;19908;-57
2022/06/01 05:03:46;;;;;;;;;;;;;;;;;;5092622;28;19915;-55
2022/06/01 05:06:13;;;;;;;;;;;;;;;;;;5092734;28;20036;-54
2022/06/01 05:08:39;;;;;;;;;;;;;;;;;;5092445;28;19920;-55
2022/06/01 05:11:06;;;;;;;;;;;;;;;;;;5092972;28;19908;-54
2022/06/01 05:13:32;;;;;;;;;;;;;;;;;;5092384;28;19919;-51
2022/06/01 05:15:59;;;;;;;;;;;;;;;;;;5092154;28;19948;-57
2022/06/01 05:18:25;;;;;;;;;;;;;;;;;;5092507;28;19915;-54
2022/06/01 05:20:54;;;;;;;;;;;;;;;;;;5092895;28;19939;-57
2022/06/01 05:23:20;;;;;;;;;;;;;;;;;;5092407;28;19939;-51
2022/06/01 05:25:47;;;;;;;;;;;;;;;;;;5091832;28;19908;-59
2022/06/01 05:28:13;;;;;;;;;;;;;;;;;;5082324;28;19956;-52
2022/06/01 05:30:40;;;;;;;;;;;;;;;;;;5081927;28;19908;-51
2022/06/01 05:33:06;;;;;;;;;;;;;;;;;;5080638;28;20495;-61
2022/06/01 05:35:33;;;;;;;;;;;;;;;;;;5087934;28;19939;-52
2022/06/01 05:38:00;;;;;;;;;;;;;;;;;;5085744;28;19951;-60
2022/06/01 05:40:30;;;;;;;;;;;;;;;;;;5081604;28;20275;-49
2022/06/01 05:42:56;;;;;;;;;;;;;;;;;;5073325;28;19936;-60
2022/06/01 05:45:23;;;;;;;;;;;;;;;;;;5072303;28;20011;-48
2022/06/01 05:47:49;;;;;;;;;;;;;;;;;;5070170;28;19905;-47
2022/06/01 05:50:16;;;;;;;;;;;;;;;;;;5071932;28;20034;-55
2022/06/01 05:52:42;;;;;;;;;;;;;;;;;;5079896;28;19908;-54
2022/06/01 05:55:09;;;;;;;;;;;;;;;;;;5080547;28;20367;-45
2022/06/01 05:57:35;;;;;;;;;;;;;;;;;;5078067;28;19998;-53
2022/06/01 06:00:02;;;;;;;;;;;;;;;;;;5081755;28;20428;-48
2022/06/01 06:02:29;;;;;;;;;;;;;;;;;;5078479;28;19951;-48
2022/06/01 06:04:55;;;;;;;;;;;;;;;;;;5087289;28;20319;-52
2022/06/01 06:07:22;;;;;;;;;;;;;;;;;;5091907;28;20447;-48
2022/06/01 06:09:48;;;;;;;;;;;;;;;;;;5092047;28;20282;-51
2022/06/01 06:12:15;;;;;;;;;;;;;;;;;;5091950;28;19912;-48
2022/06/01 06:14:41;;;;;;;;;;;;;;;;;;5094219;28;19964;-54
2022/06/01 06:17:08;;;;;;;;;;;;;;;;;;5095723;28;19916;-53
2022/06/01 06:19:38;;;;;;;;;;;;;;;;;;5095614;28;19975;-48
2022/06/01 06:22:06;;;;;;;;;;;;;;;;;;5095697;28;20043;-57
2022/06/01 06:24:32;;;;;;;;;;;;;;;;;;5082064;28;19912;-51
2022/06/01 06:26:59;;;;;;;;;;;;;;;;;;5086099;28;19909;-51
2022/06/01 06:29:25;;;;;;;;;;;;;;;;;;5088204;28;19916;-58
2022/06/01 06:31:52;;;;;;;;;;;;;;;;;;5078664;28;19908;-55
2022/06/01 06:34:18;;;;;;;;;;;;;;;;;;5072773;28;20344;-51
2022/06/01 06:36:45;;;;;;;;;;;;;;;;;;5080377;28;19912;-59
2022/06/01 06:39:11;;;;;;;;;;;;;;;;;;5078016;28;19908;-43
2022/06/01 06:41:37;;;;;;;;;;;;;;;;;;5084181;28;19912;-50
2022/06/01 06:44:04;;;;;;;;;;;;;;;;;;5086582;28;19908;-51
2022/06/01 06:46:30;;;;;;;;;;;;;;;;;;5084980;28;19936;-48
2022/06/01 06:48:57;;;;;;;;;;;;;;;;;;5080793;28;19927;-51
2022/06/01 06:51:25;;;;;;;;;;;;;;;;;;5089242;28;19912;-49
2022/06/01 06:53:51;;;;;;;;;;;;;;;;;;5083505;28;19912;-57
2022/06/01 06:56:18;;;;;;;;;;;;;;;;;;5086508;28;20004;-59
2022/06/01 06:58:44;;;;;;;;;;;;;;;;;;5085994;28;19916;-54
2022/06/01 07:01:11;;;;;;;;;;;;;;;;;;5091950;28;20232;-61
2022/06/01 07:03:37;;;;;;;;;;;;;;;;;;5094459;28;19995;-56
2022/06/01 07:06:12;;;;;;;;;;;;;;;;;;5094211;28;19915;-59
2022/06/01 07:08:38;;;;;;;;;;;;;;;;;;5094273;28;19920;-56
2022/06/01 07:11:05;;;;;;;;;;;;;;;;;;5095016;28;19912;-60
2022/06/01 07:13:32;;;;;;;;;;;;;;;;;;5095118;28;20363;-59
2022/06/01 07:15:58;;;;;;;;;;;;;;;;;;5094743;28;19965;-51
2022/06/01 07:18:25;;;;;;;;;;;;;;;;;;5094019;28;20011;-58
2022/06/01 07:20:51;;;;;;;;;;;;;;;;;;5094006;28;19908;-52
2022/06/01 07:23:18;;;;;;;;;;;;;;;;;;5094458;28;20362;-51
2022/06/01 07:25:44;;;;;;;;;;;;;;;;;;5093674;28;20382;-57
2022/06/01 07:28:11;;;;;;;;;;;;;;;;;;5093425;28;19931;-47
2022/06/01 07:30:37;;;;;;;;;;;;;;;;;;5094210;28;19955;-50
2022/06/01 07:33:04;;;;;;;;;;;;;;;;;;5094231;28;19908;-49
2022/06/01 07:35:30;;;;;;;;;;;;;;;;;;5093886;28;19965;-52
2022/06/01 07:43:34;;;;;;;;;;;;;;;;;;5063435;28;19908;-51
2022/06/01 07:46:01;;;;;;;;;;;;;;;;;;5093823;28;19962;-44
2022/06/01 07:48:27;;;;;;;;;;;;;;;;;;5094025;28;19915;-54
2022/06/01 07:50:54;;;;;;;;;;;;;;;;;;5093999;28;20043;-57
2022/06/01 07:53:20;;;;;;;;;;;;;;;;;;5093444;28;19934;-51
2022/06/01 07:55:47;;;;;;;;;;;;;;;;;;5093979;28;19913;-50
2022/06/01 07:58:13;;;;;;;;;;;;;;;;;;5093383;28;19984;-56
2022/06/01 08:00:39;;;;;;;;;;;;;;;;;;5093108;28;19951;-59
2022/06/01 08:03:06;;;;;;;;;;;;;;;;;;5093395;28;19908;-52
2022/06/01 08:05:33;;;;;;;;;;;;;;;;;;5092936;28;19908;-51
2022/06/01 08:07:59;;;;;;;;;;;;;;;;;;5094518;28;19919;-57
2022/06/01 08:10:26;;;;;;;;;;;;;;;;;;5114057;28;20022;-54
2022/06/01 08:13:07;;;;;;;;;;;;;;;;;;5113651;28;20323;-55
2022/06/01 08:15:34;;;;;;;;;;;;;;;;;;5113554;28;19916;-50
2022/06/01 08:18:01;;;;;;;;;;;;;;;;;;5114168;28;19912;-54
2022/06/01 08:20:28;;;;;;;;;;;;;;;;;;5114069;28;19951;-59
2022/06/01 08:22:55;;;;;;;;;;;;;;;;;;5113653;28;19908;-60
2022/06/01 08:25:21;;;;;;;;;;;;;;;;;;5114081;28;19952;-57
2022/06/01 08:27:48;;;;;;;;;;;;;;;;;;5113849;28;19915;-61
2022/06/01 08:30:14;;;;;;;;;;;;;;;;;;5113410;28;20363;-62
2022/06/01 08:32:41;;;;;;;;;;;;;;;;;;5113822;28;20004;-57
2022/06/01 08:35:07;;;;;;;;;;;;;;;;;;5113971;28;20075;-60
2022/06/01 08:37:34;;;;;;;;;;;;;;;;;;5112355;28;19935;-56
2022/06/01 08:40:00;;;;;;;;;;;;;;;;;;5113533;28;20002;-54
2022/06/01 08:42:27;;;;;;;;;;;;;;;;;;5113602;28;19912;-56
2022/06/01 08:44:54;;;;;;;;;;;;;;;;;;5113938;28;19908;-54
2022/06/01 08:47:21;;;;;;;;;;;;;;;;;;5113225;28;19908;-53
2022/06/01 08:49:47;;;;;;;;;;;;;;;;;;5113189;28;19930;-50
2022/06/01 08:52:14;;;;;;;;;;;;;;;;;;5112884;28;19919;-52
2022/06/01 08:54:40;;;;;;;;;;;;;;;;;;5112831;28;19920;-59
2022/06/01 08:57:07;;;;;;;;;;;;;;;;;;5113241;28;19994;-51
2022/06/01 08:59:33;;;;;;;;;;;;;;;;;;5113677;28;19904;-52
2022/06/01 09:02:02;;;;;;;;;;;;;;;;;;5113469;28;19915;-58
2022/06/01 09:04:29;;;;;;;;;;;;;;;;;;5112721;28;19907;-45
2022/06/01 09:06:55;;;;;;;;;;;;;;;;;;5111308;28;19968;-49
2022/06/01 09:09:21;;;;;;;;;;;;;;;;;;5113201;28;19923;-52
2022/06/01 09:11:48;;;;;;;;;;;;;;;;;;5112973;28;20341;-51
2022/06/01 09:14:14;;;;;;;;;;;;;;;;;;5112417;28;20289;-51
2022/06/01 09:16:41;;;;;;;;;;;;;;;;;;5112748;28;20259;-55
2022/06/01 09:19:07;;;;;;;;;;;;;;;;;;5112947;28;19908;-48
2022/06/01 09:24:18;;;;;;;;;;;;;;;;;;5113456;28;19970;-51
2022/06/01 09:26:45;;;;;;;;;;;;;;;;;;5112970;28;19930;-53
2022/06/01 09:29:12;;;;;;;;;;;;;;;;;;5112973;28;20028;-50
2022/06/01 09:31:38;;;;;;;;;;;;;;;;;;5113043;28;19911;-56
2022/06/01 09:34:05;;;;;;;;;;;;;;;;;;5111413;28;20284;-54
2022/06/01 09:36:31;;;;;;;;;;;;;;;;;;5112516;28;20285;-54
2022/06/01 09:38:58;;;;;;;;;;;;;;;;;;5113492;28;20316;-53
2022/06/01 09:41:24;;;;;;;;;;;;;;;;;;5112401;28;19931;-52
2022/06/01 09:43:51;;;;;;;;;;;;;;;;;;5112793;28;19988;-55
2022/06/01 09:46:17;;;;;;;;;;;;;;;;;;5113157;28;19908;-50
2022/06/01 09:48:44;;;;;;;;;;;;;;;;;;5114932;28;19911;-50
2022/06/01 09:51:10;;;;;;;;;;;;;;;;;;5117005;28;19908;-51
2022/06/01 09:53:37;;;;;;;;;;;;;;;;;;5117106;28;19933;-46
2022/06/01 09:56:03;;;;;;;;;;;;;;;;;;5117358;28;19907;-47
2022/06/01 10:06:43;;;;;;;;;;;;;;;;;;5116592;28;20388;-56
2022/06/01 10:09:10;;;;;;;;;;;;;;;;;;5117087;28;20370;-49
2022/06/01 10:11:36;;;;;;;;;;;;;;;;;;5116684;28;20255;-47
2022/06/01 10:14:03;;;;;;;;;;;;;;;;;;5116520;28;19957;-51
2022/06/01 10:16:31;;;;;;;;;;;;;;;;;;5116502;28;19918;-51
2022/06/01 10:18:57;;;;;;;;;;;;;;;;;;5116875;28;19961;-59
2022/06/01 10:21:24;;;;;;;;;;;;;;;;;;5116774;28;19995;-51
2022/06/01 10:23:50;;;;;;;;;;;;;;;;;;5116522;27;19904;-57
2022/06/01 10:26:17;;;;;;;;;;;;;;;;;;5116300;28;19908;-58
2022/06/01 10:28:43;;;;;;;;;;;;;;;;;;5116351;28;19907;-55
2022/06/01 10:31:10;;;;;;;;;;;;;;;;;;5116323;28;19904;-57
2022/06/01 10:33:36;;;;;;;;;;;;;;;;;;5116026;27;20318;-51
2022/06/01 10:36:03;;;;;;;;;;;;;;;;;;5115010;28;20372;-50
2022/06/01 10:38:30;;;;;;;;;;;;;;;;;;5115963;28;19915;-48
2022/06/01 10:40:56;;;;;;;;;;;;;;;;;;5116408;28;19958;-58
2022/06/01 10:43:23;;;;;;;;;;;;;;;;;;5116404;28;19915;-50
2022/06/01 10:45:52;;;;;;;;;;;;;;;;;;5116380;28;19962;-51
2022/06/01 10:48:19;;;;;;;;;;;;;;;;;;5116232;28;20282;-48
2022/06/01 10:50:45;;;;;;;;;;;;;;;;;;5115669;28;20320;-53
2022/06/01 10:53:13;;;;;;;;;;;;;;;;;;5116197;28;19994;-55
2022/06/01 10:55:39;;;;;;;;;;;;;;;;;;5114940;28;19912;-57
2022/06/01 10:58:06;;;;;;;;;;;;;;;;;;5114701;28;19999;-50
2022/06/01 11:00:32;;;;;;;;;;;;;;;;;;5114463;28;19908;-55
2022/06/01 11:02:59;;;;;;;;;;;;;;;;;;5116260;28;19911;-52
2022/06/01 11:05:25;;;;;;;;;;;;;;;;;;5114544;28;19953;-54
2022/06/01 11:07:52;;;;;;;;;;;;;;;;;;5105545;28;19927;-58
2022/06/01 11:10:18;;;;;;;;;;;;;;;;;;5095616;28;19908;-59
2022/06/01 11:12:45;;;;;;;;;;;;;;;;;;5094654;28;19905;-46
2022/06/01 11:15:11;;;;;;;;;;;;;;;;;;5093980;28;19916;-55
2022/06/01 11:17:39;;;;;;;;;;;;;;;;;;5095064;28;19908;-52
2022/06/01 11:20:05;;;;;;;;;;;;;;;;;;5095139;28;20386;-53
2022/06/01 11:22:32;;;;;;;;;;;;;;;;;;5095093;28;20384;-51
2022/06/01 11:24:58;;;;;;;;;;;;;;;;;;5095301;28;19908;-48
2022/06/01 11:27:25;;;;;;;;;;;;;;;;;;5095290;28;19908;-57
2022/06/01 11:29:53;;;;;;;;;;;;;;;;;;5095152;28;19908;-54
2022/06/01 11:32:19;;;;;;;;;;;;;;;;;;5095235;28;19915;-57
2022/06/01 11:34:46;;;;;;;;;;;;;;;;;;5094663;28;20022;-48
2022/06/01 11:37:12;;;;;;;;;;;;;;;;;;5094591;28;19930;-48
2022/06/01 11:39:39;;;;;;;;;;;;;;;;;;5095072;28;20367;-58
2022/06/01 11:42:05;;;;;;;;;;;;;;;;;;5094875;28;19908;-56
2022/06/01 11:44:32;;;;;;;;;;;;;;;;;;5094538;28;19913;-49
2022/06/01 11:46:58;;;;;;;;;;;;;;;;;;5094873;28;20383;-53
2022/06/01 11:49:25;;;;;;;;;;;;;;;;;;5094537;28;20379;-53
2022/06/01 11:51:52;;;;;;;;;;;;;;;;;;5093043;28;19912;-52
2022/06/01 11:54:18;;;;;;;;;;;;;;;;;;5094035;28;19920;-56
2022/06/01 11:56:45;;;;;;;;;;;;;;;;;;5094501;28;19908;-56
2022/06/01 11:59:12;;;;;;;;;;;;;;;;;;5094374;28;20017;-50
2022/06/01 12:01:38;;;;;;;;;;;;;;;;;;5094289;28;19984;-54
2022/06/01 12:04:05;;;;;;;;;;;;;;;;;;5094422;28;19908;-44
2022/06/01 12:06:32;;;;;;;;;;;;;;;;;;5094109;28;19919;-47
2022/06/01 12:08:58;;;;;;;;;;;;;;;;;;5093844;28;19958;-54
2022/06/01 12:11:25;;;;;;;;;;;;;;;;;;5093855;28;19945;-49
2022/06/01 12:13:51;;;;;;;;;;;;;;;;;;5094170;28;20315;-54
2022/06/01 12:16:18;;;;;;;;;;;;;;;;;;5093941;28;19915;-54
2022/06/01 12:18:44;;;;;;;;;;;;;;;;;;5093884;28;19915;-54
2022/06/01 12:21:15;;;;;;;;;;;;;;;;;;5092708;28;20213;-51
2022/06/01 12:29:10;;;;;;;;;;;;;;;;;;5094093;28;19915;-50
2022/06/01 12:31:37;;;;;;;;;;;;;;;;;;5093268;28;20007;-53
2022/06/01 12:34:03;;;;;;;;;;;;;;;;;;5093605;28;19924;-43
2022/06/01 12:36:29;;;;;;;;;;;;;;;;;;5093776;28;19911;-55
2022/06/01 12:38:56;;;;;;;;;;;;;;;;;;5093841;28;19908;-45
2022/06/01 12:41:22;;;;;;;;;;;;;;;;;;5093565;28;19912;-48
2022/06/01 12:43:49;;;;;;;;;;;;;;;;;;5093664;28;20260;-46
2022/06/01 12:46:15;;;;;;;;;;;;;;;;;;5093738;28;19908;-47
2022/06/01 12:48:42;;;;;;;;;;;;;;;;;;5093523;28;19908;-48
2022/06/01 12:51:09;;;;;;;;;;;;;;;;;;5093300;28;19912;-46
2022/06/01 12:53:36;;;;;;;;;;;;;;;;;;5093535;28;19919;-53
2022/06/01 12:56:02;;;;;;;;;;;;;;;;;;5093566;28;19957;-53
2022/06/01 12:58:28;;;;;;;;;;;;;;;;;;5093211;28;19920;-57
2022/06/01 13:00:55;;;;;;;;;;;;;;;;;;5093800;28;19945;-50
2022/06/01 13:03:22;;;;;;;;;;;;;;;;;;5093336;28;20004;-45
2022/06/01 13:05:50;;;;;;;;;;;;;;;;;;5093427;28;19908;-51
2022/06/01 13:08:16;;;;;;;;;;;;;;;;;;5093178;28;19921;-58
2022/06/01 13:10:43;;;;;;;;;;;;;;;;;;5093330;28;20355;-52
2022/06/01 13:13:09;;;;;;;;;;;;;;;;;;5093242;28;20282;-58
2022/06/01 13:15:36;;;;;;;;;;;;;;;;;;5093146;28;19918;-50
2022/06/01 13:18:02;;;;;;;;;;;;;;;;;;5093643;28;19908;-49
2022/06/01 13:20:29;;;;;;;;;;;;;;;;;;5093082;28;19912;-49
2022/06/01 13:22:55;;;;;;;;;;;;;;;;;;5092760;28;19916;-56
2022/06/01 13:25:22;;;;;;;;;;;;;;;;;;5093034;28;20011;-54
2022/06/01 13:27:48;;;;;;;;;;;;;;;;;;5093258;28;19912;-57
2022/06/01 13:30:18;;;;;;;;;;;;;;;;;;5093390;28;19908;-56
2022/06/01 13:32:44;;;;;;;;;;;;;;;;;;5092965;28;19952;-59
2022/06/01 13:35:10;;;;;;;;;;;;;;;;;;5092781;28;19916;-51
2022/06/01 13:37:37;;;;;;;;;;;;;;;;;;5092949;28;19908;-52
2022/06/01 13:40:03;;;;;;;;;;;;;;;;;;5092862;28;19909;-55
2022/06/01 13:42:31;;;;;;;;;;;;;;;;;;5092853;28;20255;-50
2022/06/01 13:44:57;;;;;;;;;;;;;;;;;;5093183;28;19912;-54
2022/06/01 13:47:24;;;;;;;;;;;;;;;;;;5092953;28;19987;-56
2022/06/01 13:49:50;;;;;;;;;;;;;;;;;;5093018;28;19912;-53
2022/06/01 13:52:17;;;;;;;;;;;;;;;;;;5092934;28;19926;-60
2022/06/01 13:54:43;;;;;;;;;;;;;;;;;;5092802;28;20415;-56
2022/06/01 13:57:10;;;;;;;;;;;;;;;;;;5092904;28;19912;-56
2022/06/01 13:59:36;;;;;;;;;;;;;;;;;;5092954;28;19912;-61
2022/06/01 14:02:03;;;;;;;;;;;;;;;;;;5093091;28;19908;-53
2022/06/01 14:04:29;;;;;;;;;;;;;;;;;;5092492;28;19909;-58
2022/06/01 14:06:56;;;;;;;;;;;;;;;;;;5093036;28;19908;-57
2022/06/01 14:09:22;;;;;;;;;;;;;;;;;;5092895;28;20289;-58
2022/06/01 14:11:48;;;;;;;;;;;;;;;;;;5092953;28;19927;-54
2022/06/01 14:14:15;;;;;;;;;;;;;;;;;;5092714;28;19938;-58
2022/06/01 14:16:41;;;;;;;;;;;;;;;;;;5092651;28;20370;-52
2022/06/01 14:19:08;;;;;;;;;;;;;;;;;;5092902;28;19955;-57
2022/06/01 14:21:34;;;;;;;;;;;;;;;;;;5092966;28;19909;-50
2022/06/01 14:24:01;;;;;;;;;;;;;;;;;;5092557;28;20002;-47
2022/06/01 14:29:12;;;;;;;;;;;;;;;;;;5092896;28;19989;-47
2022/06/01 14:31:38;;;;;;;;;;;;;;;;;;5092980;28;19908;-50
2022/06/01 14:34:06;;;;;;;;;;;;;;;;;;5093262;28;19912;-49
2022/06/01 14:36:32;;;;;;;;;;;;;;;;;;5095281;28;19954;-57
2022/06/01 14:39:00;;;;;;;;;;;;;;;;;;5096325;28;19908;-55
2022/06/01 14:41:26;;;;;;;;;;;;;;;;;;5096243;28;19908;-54
2022/06/01 14:43:53;;;;;;;;;;;;;;;;;;5096307;28;19910;-49
2022/06/01 14:46:19;;;;;;;;;;;;;;;;;;5096284;28;19938;-47
2022/06/01 14:48:46;;;;;;;;;;;;;;;;;;5095944;28;19956;-54
2022/06/01 14:51:12;;;;;;;;;;;;;;;;;;5096010;28;19915;-52
2022/06/01 14:53:39;;;;;;;;;;;;;;;;;;5095926;28;19923;-49
2022/06/01 14:56:05;;;;;;;;;;;;;;;;;;5096123;28;19917;-57
2022/06/01 14:58:32;;;;;;;;;;;;;;;;;;5095828;28;19916;-52
2022/06/01 15:00:58;;;;;;;;;;;;;;;;;;5096016;28;19908;-53
2022/06/01 15:03:25;;;;;;;;;;;;;;;;;;5096013;28;19961;-46
2022/06/01 15:05:51;;;;;;;;;;;;;;;;;;5095684;28;19923;-44
2022/06/01 15:08:17;;;;;;;;;;;;;;;;;;5095667;28;19927;-55
2022/06/01 15:10:44;;;;;;;;;;;;;;;;;;5095590;28;20294;-51
2022/06/01 15:13:11;;;;;;;;;;;;;;;;;;5095736;28;19914;-50
2022/06/01 15:15:37;;;;;;;;;;;;;;;;;;5094198;28;19924;-59
2022/06/01 15:18:04;;;;;;;;;;;;;;;;;;5095554;28;19912;-50
2022/06/01 15:20:31;;;;;;;;;;;;;;;;;;5095292;28;19908;-55
2022/06/01 15:22:57;;;;;;;;;;;;;;;;;;5095586;28;19912;-50
2022/06/01 15:25:23;;;;;;;;;;;;;;;;;;5095512;28;19912;-52
2022/06/01 15:27:50;;;;;;;;;;;;;;;;;;5094302;28;19987;-50
2022/06/01 15:41:15;;;;;;;;;;;;;;;;;;5095469;28;19914;-43
2022/06/01 15:43:41;;;;;;;;;;;;;;;;;;5095316;28;19916;-45
2022/06/01 15:46:08;;;;;;;;;;;;;;;;;;5094395;28;20282;-56
2022/06/01 15:48:34;;;;;;;;;;;;;;;;;;5093720;28;19946;-47
2022/06/01 15:51:01;;;;;;;;;;;;;;;;;;5095125;28;19911;-44
2022/06/01 15:53:28;;;;;;;;;;;;;;;;;;5094932;28;19912;-42
2022/06/01 15:55:55;;;;;;;;;;;;;;;;;;5095184;28;19912;-50
2022/06/01 15:58:21;;;;;;;;;;;;;;;;;;5094846;28;19962;-54
2022/06/01 16:00:48;;;;;;;;;;;;;;;;;;5094661;28;19915;-55
2022/06/01 16:03:15;;;;;;;;;;;;;;;;;;5094998;28;19912;-53
2022/06/01 16:05:41;;;;;;;;;;;;;;;;;;5094531;28;19922;-52
2022/06/01 16:08:07;;;;;;;;;;;;;;;;;;5094504;28;19963;-49
2022/06/01 16:10:34;;;;;;;;;;;;;;;;;;5094425;28;19908;-51
2022/06/01 16:13:00;;;;;;;;;;;;;;;;;;5094510;28;20215;-57
2022/06/01 16:15:27;;;;;;;;;;;;;;;;;;5094444;28;19916;-54
2022/06/01 16:17:53;;;;;;;;;;;;;;;;;;5094351;28;19952;-55
2022/06/01 16:20:20;;;;;;;;;;;;;;;;;;5094233;28;19908;-50
2022/06/01 16:22:46;;;;;;;;;;;;;;;;;;5094282;28;19909;-47
2022/06/01 16:25:13;;;;;;;;;;;;;;;;;;5094384;28;20370;-53
2022/06/01 16:27:39;;;;;;;;;;;;;;;;;;5094302;28;20363;-46
2022/06/01 16:30:07;;;;;;;;;;;;;;;;;;5094280;28;19931;-55
2022/06/01 16:32:33;;;;;;;;;;;;;;;;;;5094169;28;19935;-55
2022/06/01 16:34:59;;;;;;;;;;;;;;;;;;5094097;28;19989;-52
2022/06/01 16:37:26;;;;;;;;;;;;;;;;;;5094273;28;19923;-53
2022/06/01 16:39:52;;;;;;;;;;;;;;;;;;5094084;28;19987;-55
2022/06/01 16:42:19;;;;;;;;;;;;;;;;;;5094320;28;19912;-54
2022/06/01 16:44:45;;;;;;;;;;;;;;;;;;5093856;28;19941;-53
2022/06/01 16:47:12;;;;;;;;;;;;;;;;;;5094003;28;19940;-51
2022/06/01 16:49:38;;;;;;;;;;;;;;;;;;5093740;28;19911;-46
2022/06/01 16:52:05;;;;;;;;;;;;;;;;;;5093727;28;19908;-53
2022/06/01 16:54:31;;;;;;;;;;;;;;;;;;5093651;28;19916;-49
2022/06/01 16:56:58;;;;;;;;;;;;;;;;;;5093765;28;19908;-51
2022/06/01 16:59:24;;;;;;;;;;;;;;;;;;5091959;28;19991;-48
2022/06/01 17:01:51;;;;;;;;;;;;;;;;;;5093822;28;19908;-49
2022/06/01 17:04:17;;;;;;;;;;;;;;;;;;5093461;28;19915;-53
2022/06/01 17:06:44;;;;;;;;;;;;;;;;;;5093214;28;19920;-57
2022/06/01 17:09:10;;;;;;;;;;;;;;;;;;5093638;28;19916;-56
2022/06/01 17:11:37;;;;;;;;;;;;;;;;;;5093466;28;19915;-54
2022/06/01 17:14:03;;;;;;;;;;;;;;;;;;5093445;28;19916;-56
2022/06/01 17:16:29;;;;;;;;;;;;;;;;;;5093347;28;19978;-58
2022/06/01 17:18:59;;;;;;;;;;;;;;;;;;5093476;28;19908;-47
2022/06/01 17:21:25;;;;;;;;;;;;;;;;;;5093931;28;20248;-56
2022/06/01 17:23:52;;;;;;;;;;;;;;;;;;5093774;28;19914;-50
2022/06/01 17:26:18;;;;;;;;;;;;;;;;;;5093395;28;19916;-55